sensor_id;sensor_type;location;lat;lon;timestamp;P1;durP1;ratioP1;P2;durP2;ratioP2
35907;SDS011;22003;50.320;8.054;2023-02-03T00:00:02;6.55;;;2.50;;
35907;SDS011;22003;50.320;8.054;2023-02-03T05:03:12;3.05;;;1.40;;
35907;SDS011;22003;50.320;8.054;2023-02-03T05:05:38;4.68;;;1.58;;
35907;SDS011;22003;50.320;8.054;2023-02-03T05:08:03;4.05;;;2.17;;
35907;SDS011;22003;50.320;8.054;2023-02-03T05:10:28;5.03;;;2.05;;
35907;SDS011;22003;50.320;8.054;2023-02-03T05:12:54;7.80;;;1.17;;
35907;SDS011;22003;50.320;8.054;2023-02-03T05:15:19;5.88;;;1.52;;
35907;SDS011;22003;50.320;8.054;2023-02-03T05:17:44;2.13;;;1.33;;
35907;SDS011;22003;50.320;8.054;2023-02-03T05:20:10;2.75;;;1.20;;
35907;SDS011;22003;50.320;8.054;2023-02-03T05:22:35;5.60;;;2.13;;
35907;SDS011;22003;50.320;8.054;2023-02-03T05:25:01;5.50;;;2.50;;
35907;SDS011;22003;50.320;8.054;2023-02-03T05:27:27;5.53;;;2.03;;
35907;SDS011;22003;50.320;8.054;2023-02-03T05:29:52;4.47;;;1.42;;
35907;SDS011;22003;50.320;8.054;2023-02-03T05:32:18;3.95;;;1.55;;
35907;SDS011;22003;50.320;8.054;2023-02-03T05:34:43;5.10;;;1.92;;
35907;SDS011;22003;50.320;8.054;2023-02-03T05:37:09;2.95;;;1.20;;
35907;SDS011;22003;50.320;8.054;2023-02-03T05:39:34;3.47;;;1.00;;
35907;SDS011;22003;50.320;8.054;2023-02-03T05:41:59;3.13;;;1.00;;
35907;SDS011;22003;50.320;8.054;2023-02-03T05:44:25;7.72;;;2.45;;
35907;SDS011;22003;50.320;8.054;2023-02-03T05:46:52;4.57;;;2.28;;
35907;SDS011;22003;50.320;8.054;2023-02-03T05:49:19;3.42;;;1.65;;
35907;SDS011;22003;50.320;8.054;2023-02-03T05:51:44;3.88;;;1.08;;
35907;SDS011;22003;50.320;8.054;2023-02-03T05:54:10;4.00;;;1.35;;
35907;SDS011;22003;50.320;8.054;2023-02-03T05:56:36;3.47;;;1.20;;
35907;SDS011;22003;50.320;8.054;2023-02-03T05:59:02;5.43;;;1.35;;
35907;SDS011;22003;50.320;8.054;2023-02-03T06:01:28;2.90;;;1.08;;
35907;SDS011;22003;50.320;8.054;2023-02-03T06:03:53;4.03;;;1.08;;
35907;SDS011;22003;50.320;8.054;2023-02-03T06:06:19;3.35;;;1.15;;
35907;SDS011;22003;50.320;8.054;2023-02-03T06:08:44;2.15;;;1.25;;
35907;SDS011;22003;50.320;8.054;2023-02-03T06:11:10;5.20;;;1.50;;
35907;SDS011;22003;50.320;8.054;2023-02-03T06:13:36;2.47;;;1.77;;
35907;SDS011;22003;50.320;8.054;2023-02-03T06:16:01;3.50;;;1.40;;
35907;SDS011;22003;50.320;8.054;2023-02-03T06:18:26;2.67;;;1.20;;
35907;SDS011;22003;50.320;8.054;2023-02-03T06:20:52;1.48;;;0.70;;
35907;SDS011;22003;50.320;8.054;2023-02-03T06:23:17;4.18;;;1.60;;
35907;SDS011;22003;50.320;8.054;2023-02-03T06:25:43;2.00;;;1.10;;
35907;SDS011;22003;50.320;8.054;2023-02-03T06:28:09;3.50;;;1.17;;
35907;SDS011;22003;50.320;8.054;2023-02-03T06:30:35;3.85;;;1.48;;
35907;SDS011;22003;50.320;8.054;2023-02-03T06:33:00;1.48;;;0.90;;
35907;SDS011;22003;50.320;8.054;2023-02-03T06:35:25;2.22;;;1.15;;
35907;SDS011;22003;50.320;8.054;2023-02-03T06:37:51;3.58;;;1.42;;
35907;SDS011;22003;50.320;8.054;2023-02-03T06:40:16;4.10;;;1.58;;
35907;SDS011;22003;50.320;8.054;2023-02-03T06:42:45;3.05;;;1.23;;
35907;SDS011;22003;50.320;8.054;2023-02-03T06:45:11;9.57;;;1.75;;
35907;SDS011;22003;50.320;8.054;2023-02-03T06:47:43;2.20;;;1.27;;
35907;SDS011;22003;50.320;8.054;2023-02-03T06:50:10;5.72;;;1.15;;
35907;SDS011;22003;50.320;8.054;2023-02-03T06:52:37;2.35;;;1.38;;
35907;SDS011;22003;50.320;8.054;2023-02-03T06:55:03;2.97;;;1.08;;
35907;SDS011;22003;50.320;8.054;2023-02-03T06:57:29;8.18;;;1.60;;
35907;SDS011;22003;50.320;8.054;2023-02-03T06:59:55;3.80;;;1.25;;
35907;SDS011;22003;50.320;8.054;2023-02-03T07:02:20;2.25;;;1.35;;
35907;SDS011;22003;50.320;8.054;2023-02-03T07:04:45;2.05;;;1.10;;
35907;SDS011;22003;50.320;8.054;2023-02-03T07:07:11;4.03;;;1.20;;
35907;SDS011;22003;50.320;8.054;2023-02-03T07:09:37;1.98;;;1.10;;
35907;SDS011;22003;50.320;8.054;2023-02-03T07:12:05;5.47;;;1.27;;
35907;SDS011;22003;50.320;8.054;2023-02-03T07:14:32;4.38;;;1.05;;
35907;SDS011;22003;50.320;8.054;2023-02-03T07:16:59;4.10;;;1.13;;
35907;SDS011;22003;50.320;8.054;2023-02-03T07:19:25;2.78;;;1.00;;
35907;SDS011;22003;50.320;8.054;2023-02-03T07:21:50;3.05;;;1.08;;
35907;SDS011;22003;50.320;8.054;2023-02-03T07:24:15;4.60;;;1.17;;
35907;SDS011;22003;50.320;8.054;2023-02-03T07:26:41;2.10;;;1.35;;
35907;SDS011;22003;50.320;8.054;2023-02-03T07:29:06;3.15;;;1.02;;
35907;SDS011;22003;50.320;8.054;2023-02-03T07:31:31;3.47;;;1.38;;
35907;SDS011;22003;50.320;8.054;2023-02-03T07:33:56;2.67;;;1.17;;
35907;SDS011;22003;50.320;8.054;2023-02-03T07:36:22;1.60;;;1.15;;
35907;SDS011;22003;50.320;8.054;2023-02-03T07:38:48;3.08;;;1.10;;
35907;SDS011;22003;50.320;8.054;2023-02-03T07:41:14;3.35;;;0.90;;
35907;SDS011;22003;50.320;8.054;2023-02-03T07:43:39;3.85;;;1.20;;
35907;SDS011;22003;50.320;8.054;2023-02-03T07:46:04;3.85;;;1.17;;
35907;SDS011;22003;50.320;8.054;2023-02-03T07:48:29;4.05;;;0.98;;
35907;SDS011;22003;50.320;8.054;2023-02-03T07:50:55;4.45;;;1.60;;
35907;SDS011;22003;50.320;8.054;2023-02-03T07:53:20;7.57;;;1.90;;
35907;SDS011;22003;50.320;8.054;2023-02-03T07:55:45;6.13;;;1.25;;
35907;SDS011;22003;50.320;8.054;2023-02-03T07:58:11;3.53;;;1.15;;
35907;SDS011;22003;50.320;8.054;2023-02-03T08:00:36;5.05;;;0.95;;
35907;SDS011;22003;50.320;8.054;2023-02-03T08:03:01;2.47;;;1.13;;
35907;SDS011;22003;50.320;8.054;2023-02-03T08:05:27;5.28;;;1.05;;
35907;SDS011;22003;50.320;8.054;2023-02-03T08:07:54;2.30;;;1.02;;
35907;SDS011;22003;50.320;8.054;2023-02-03T08:10:19;4.75;;;0.95;;
35907;SDS011;22003;50.320;8.054;2023-02-03T08:12:44;5.00;;;1.30;;
35907;SDS011;22003;50.320;8.054;2023-02-03T08:15:11;2.05;;;0.95;;
35907;SDS011;22003;50.320;8.054;2023-02-03T08:17:36;2.92;;;1.20;;
35907;SDS011;22003;50.320;8.054;2023-02-03T08:20:04;3.28;;;1.17;;
35907;SDS011;22003;50.320;8.054;2023-02-03T08:22:30;2.72;;;0.80;;
35907;SDS011;22003;50.320;8.054;2023-02-03T08:24:55;1.88;;;1.02;;
35907;SDS011;22003;50.320;8.054;2023-02-03T08:27:21;4.47;;;0.95;;
35907;SDS011;22003;50.320;8.054;2023-02-03T08:29:46;3.30;;;1.33;;
35907;SDS011;22003;50.320;8.054;2023-02-03T08:32:14;4.15;;;0.93;;
35907;SDS011;22003;50.320;8.054;2023-02-03T08:34:41;3.80;;;1.52;;
35907;SDS011;22003;50.320;8.054;2023-02-03T08:37:07;5.88;;;2.40;;
35907;SDS011;22003;50.320;8.054;2023-02-03T08:39:34;2.40;;;0.85;;
35907;SDS011;22003;50.320;8.054;2023-02-03T08:41:59;3.45;;;1.00;;
35907;SDS011;22003;50.320;8.054;2023-02-03T08:44:27;2.45;;;0.90;;
35907;SDS011;22003;50.320;8.054;2023-02-03T08:46:53;2.60;;;1.02;;
35907;SDS011;22003;50.320;8.054;2023-02-03T08:49:18;2.05;;;0.85;;
35907;SDS011;22003;50.320;8.054;2023-02-03T08:51:45;3.00;;;1.00;;
35907;SDS011;22003;50.320;8.054;2023-02-03T08:54:12;6.38;;;1.30;;
35907;SDS011;22003;50.320;8.054;2023-02-03T08:56:37;5.57;;;0.98;;
35907;SDS011;22003;50.320;8.054;2023-02-03T08:59:02;2.55;;;0.88;;
35907;SDS011;22003;50.320;8.054;2023-02-03T09:01:28;5.20;;;1.30;;
35907;SDS011;22003;50.320;8.054;2023-02-03T09:03:53;2.30;;;0.80;;
35907;SDS011;22003;50.320;8.054;2023-02-03T09:06:19;12.18;;;2.03;;
35907;SDS011;22003;50.320;8.054;2023-02-03T09:08:44;3.65;;;1.05;;
35907;SDS011;22003;50.320;8.054;2023-02-03T09:11:14;10.82;;;2.88;;
35907;SDS011;22003;50.320;8.054;2023-02-03T09:13:41;4.43;;;0.80;;
35907;SDS011;22003;50.320;8.054;2023-02-03T09:16:10;31.00;;;3.90;;
35907;SDS011;22003;50.320;8.054;2023-02-03T09:18:36;5.13;;;1.15;;
35907;SDS011;22003;50.320;8.054;2023-02-03T09:21:04;2.30;;;0.70;;
35907;SDS011;22003;50.320;8.054;2023-02-03T09:23:31;1.40;;;0.73;;
35907;SDS011;22003;50.320;8.054;2023-02-03T09:26:03;1.52;;;0.60;;
35907;SDS011;22003;50.320;8.054;2023-02-03T09:28:29;3.10;;;0.50;;
35907;SDS011;22003;50.320;8.054;2023-02-03T09:31:01;2.65;;;0.77;;
35907;SDS011;22003;50.320;8.054;2023-02-03T09:33:30;4.43;;;0.95;;
35907;SDS011;22003;50.320;8.054;2023-02-03T09:35:56;7.57;;;1.02;;
35907;SDS011;22003;50.320;8.054;2023-02-03T09:38:22;4.32;;;0.80;;
35907;SDS011;22003;50.320;8.054;2023-02-03T09:40:48;3.38;;;0.95;;
35907;SDS011;22003;50.320;8.054;2023-02-03T09:46:58;6.32;;;0.90;;
35907;SDS011;22003;50.320;8.054;2023-02-03T09:49:42;1.50;;;0.82;;
35907;SDS011;22003;50.320;8.054;2023-02-03T09:57:26;3.78;;;1.20;;
35907;SDS011;22003;50.320;8.054;2023-02-03T09:59:55;1.23;;;0.88;;
35907;SDS011;22003;50.320;8.054;2023-02-03T10:05:09;3.03;;;0.90;;
35907;SDS011;22003;50.320;8.054;2023-02-03T10:07:55;2.47;;;0.90;;
35907;SDS011;22003;50.320;8.054;2023-02-03T10:10:46;4.15;;;1.13;;
35907;SDS011;22003;50.320;8.054;2023-02-03T10:16:32;2.88;;;0.70;;
35907;SDS011;22003;50.320;8.054;2023-02-03T10:19:14;1.95;;;1.20;;
35907;SDS011;22003;50.320;8.054;2023-02-03T10:22:07;3.25;;;1.05;;
35907;SDS011;22003;50.320;8.054;2023-02-03T10:27:10;6.00;;;1.10;;
35907;SDS011;22003;50.320;8.054;2023-02-03T10:29:42;2.10;;;1.15;;
35907;SDS011;22003;50.320;8.054;2023-02-03T10:32:10;9.90;;;1.52;;
35907;SDS011;22003;50.320;8.054;2023-02-03T10:34:37;4.15;;;1.40;;
35907;SDS011;22003;50.320;8.054;2023-02-03T10:37:19;7.38;;;1.45;;
35907;SDS011;22003;50.320;8.054;2023-02-03T10:39:51;4.15;;;0.75;;
35907;SDS011;22003;50.320;8.054;2023-02-03T10:42:17;2.23;;;0.80;;
35907;SDS011;22003;50.320;8.054;2023-02-03T10:44:45;3.45;;;0.70;;
35907;SDS011;22003;50.320;8.054;2023-02-03T10:47:26;1.70;;;0.90;;
35907;SDS011;22003;50.320;8.054;2023-02-03T10:49:59;2.25;;;0.90;;
35907;SDS011;22003;50.320;8.054;2023-02-03T10:52:34;3.15;;;1.60;;
35907;SDS011;22003;50.320;8.054;2023-02-03T10:55:03;3.42;;;1.35;;
35907;SDS011;22003;50.320;8.054;2023-02-03T10:57:33;3.33;;;0.85;;
35907;SDS011;22003;50.320;8.054;2023-02-03T11:05:32;1.58;;;1.10;;
35907;SDS011;22003;50.320;8.054;2023-02-03T11:07:58;1.95;;;1.08;;
35907;SDS011;22003;50.320;8.054;2023-02-03T11:10:27;2.60;;;1.20;;
35907;SDS011;22003;50.320;8.054;2023-02-03T11:18:41;10.60;;;2.47;;
35907;SDS011;22003;50.320;8.054;2023-02-03T11:21:11;4.57;;;1.20;;
35907;SDS011;22003;50.320;8.054;2023-02-03T11:23:44;3.15;;;1.00;;
35907;SDS011;22003;50.320;8.054;2023-02-03T11:26:14;5.65;;;1.40;;
35907;SDS011;22003;50.320;8.054;2023-02-03T11:28:44;2.80;;;1.17;;
35907;SDS011;22003;50.320;8.054;2023-02-03T11:31:24;4.30;;;0.98;;
35907;SDS011;22003;50.320;8.054;2023-02-03T11:33:55;2.97;;;1.15;;
35907;SDS011;22003;50.320;8.054;2023-02-03T11:36:26;5.95;;;2.10;;
35907;SDS011;22003;50.320;8.054;2023-02-03T11:39:01;3.20;;;1.63;;
35907;SDS011;22003;50.320;8.054;2023-02-03T11:41:38;3.78;;;1.50;;
35907;SDS011;22003;50.320;8.054;2023-02-03T11:44:37;2.30;;;1.15;;
35907;SDS011;22003;50.320;8.054;2023-02-03T11:55:13;2.20;;;1.25;;
35907;SDS011;22003;50.320;8.054;2023-02-03T11:57:58;7.45;;;1.80;;
35907;SDS011;22003;50.320;8.054;2023-02-03T12:00:36;4.10;;;1.48;;
35907;SDS011;22003;50.320;8.054;2023-02-03T12:06:26;6.57;;;3.05;;
35907;SDS011;22003;50.320;8.054;2023-02-03T12:11:46;6.68;;;1.65;;
35907;SDS011;22003;50.320;8.054;2023-02-03T12:20:30;5.20;;;1.67;;
35907;SDS011;22003;50.320;8.054;2023-02-03T12:31:11;3.70;;;1.60;;
35907;SDS011;22003;50.320;8.054;2023-02-03T12:33:45;3.72;;;1.45;;
35907;SDS011;22003;50.320;8.054;2023-02-03T12:36:16;3.13;;;1.27;;
35907;SDS011;22003;50.320;8.054;2023-02-03T12:38:50;3.20;;;1.15;;
35907;SDS011;22003;50.320;8.054;2023-02-03T12:41:27;2.38;;;0.90;;
35907;SDS011;22003;50.320;8.054;2023-02-03T12:43:59;2.45;;;1.10;;
35907;SDS011;22003;50.320;8.054;2023-02-03T12:46:31;2.15;;;0.90;;
35907;SDS011;22003;50.320;8.054;2023-02-03T12:49:09;1.60;;;0.60;;
35907;SDS011;22003;50.320;8.054;2023-02-03T12:51:48;1.25;;;0.82;;
35907;SDS011;22003;50.320;8.054;2023-02-03T12:54:32;2.25;;;1.02;;
35907;SDS011;22003;50.320;8.054;2023-02-03T13:00:17;2.58;;;1.65;;
35907;SDS011;22003;50.320;8.054;2023-02-03T13:02:53;5.35;;;2.13;;
35907;SDS011;22003;50.320;8.054;2023-02-03T13:05:40;1.85;;;0.90;;
35907;SDS011;22003;50.320;8.054;2023-02-03T13:08:28;1.88;;;1.10;;
35907;SDS011;22003;50.320;8.054;2023-02-03T13:11:09;3.03;;;0.75;;
35907;SDS011;22003;50.320;8.054;2023-02-03T13:13:45;2.78;;;0.93;;
35907;SDS011;22003;50.320;8.054;2023-02-03T13:16:16;0.73;;;0.60;;
35907;SDS011;22003;50.320;8.054;2023-02-03T13:18:46;1.95;;;1.35;;
35907;SDS011;22003;50.320;8.054;2023-02-03T13:21:18;2.20;;;0.90;;
35907;SDS011;22003;50.320;8.054;2023-02-03T13:23:43;0.85;;;0.75;;
35907;SDS011;22003;50.320;8.054;2023-02-03T13:29:01;1.65;;;1.10;;
35907;SDS011;22003;50.320;8.054;2023-02-03T13:31:48;2.83;;;1.10;;
35907;SDS011;22003;50.320;8.054;2023-02-03T13:37:13;3.15;;;1.10;;
35907;SDS011;22003;50.320;8.054;2023-02-03T13:39:51;1.98;;;0.63;;
35907;SDS011;22003;50.320;8.054;2023-02-03T13:42:21;1.13;;;1.00;;
35907;SDS011;22003;50.320;8.054;2023-02-03T13:44:52;1.25;;;1.00;;
35907;SDS011;22003;50.320;8.054;2023-02-03T13:47:25;2.97;;;1.27;;
35907;SDS011;22003;50.320;8.054;2023-02-03T13:49:54;1.80;;;0.95;;
35907;SDS011;22003;50.320;8.054;2023-02-03T13:55:05;4.40;;;1.45;;
35907;SDS011;22003;50.320;8.054;2023-02-03T13:57:32;4.07;;;1.13;;
35907;SDS011;22003;50.320;8.054;2023-02-03T13:59:59;2.13;;;1.60;;
35907;SDS011;22003;50.320;8.054;2023-02-03T14:04:54;3.63;;;1.65;;
35907;SDS011;22003;50.320;8.054;2023-02-03T14:07:37;3.08;;;2.00;;
35907;SDS011;22003;50.320;8.054;2023-02-03T14:12:53;3.58;;;2.45;;
35907;SDS011;22003;50.320;8.054;2023-02-03T14:15:21;3.88;;;2.60;;
35907;SDS011;22003;50.320;8.054;2023-02-03T14:22:51;5.38;;;3.17;;
35907;SDS011;22003;50.320;8.054;2023-02-03T14:25:19;5.82;;;3.58;;
35907;SDS011;22003;50.320;8.054;2023-02-03T14:27:45;10.77;;;3.88;;
35907;SDS011;22003;50.320;8.054;2023-02-03T14:30:13;4.70;;;3.70;;
35907;SDS011;22003;50.320;8.054;2023-02-03T14:35:33;9.30;;;3.92;;
35907;SDS011;22003;50.320;8.054;2023-02-03T14:38:02;8.07;;;3.50;;
35907;SDS011;22003;50.320;8.054;2023-02-03T14:51:07;5.07;;;3.40;;
35907;SDS011;22003;50.320;8.054;2023-02-03T14:53:50;5.85;;;3.47;;
35907;SDS011;22003;50.320;8.054;2023-02-03T14:59:45;6.30;;;3.30;;
35907;SDS011;22003;50.320;8.054;2023-02-03T15:02:15;6.97;;;3.03;;
35907;SDS011;22003;50.320;8.054;2023-02-03T15:04:51;4.78;;;3.25;;
35907;SDS011;22003;50.320;8.054;2023-02-03T15:10:20;6.72;;;3.30;;
35907;SDS011;22003;50.320;8.054;2023-02-03T15:12:53;6.28;;;3.00;;
35907;SDS011;22003;50.320;8.054;2023-02-03T15:15:24;4.30;;;3.13;;
35907;SDS011;22003;50.320;8.054;2023-02-03T15:17:53;5.88;;;3.42;;
35907;SDS011;22003;50.320;8.054;2023-02-03T15:20:36;4.78;;;3.20;;
35907;SDS011;22003;50.320;8.054;2023-02-03T15:25:45;6.63;;;3.17;;
35907;SDS011;22003;50.320;8.054;2023-02-03T15:28:18;4.80;;;3.30;;
35907;SDS011;22003;50.320;8.054;2023-02-03T15:33:16;4.80;;;3.55;;
35907;SDS011;22003;50.320;8.054;2023-02-03T15:35:45;6.57;;;3.28;;
35907;SDS011;22003;50.320;8.054;2023-02-03T15:38:15;9.00;;;4.47;;
35907;SDS011;22003;50.320;8.054;2023-02-03T15:40:47;5.72;;;3.80;;
35907;SDS011;22003;50.320;8.054;2023-02-03T15:43:37;10.05;;;4.70;;
35907;SDS011;22003;50.320;8.054;2023-02-03T15:46:26;6.07;;;4.32;;
35907;SDS011;22003;50.320;8.054;2023-02-03T15:49:05;6.07;;;3.78;;
35907;SDS011;22003;50.320;8.054;2023-02-03T15:51:44;8.07;;;4.15;;
35907;SDS011;22003;50.320;8.054;2023-02-03T15:54:22;7.30;;;4.47;;
35907;SDS011;22003;50.320;8.054;2023-02-03T15:57:36;10.95;;;5.55;;
35907;SDS011;22003;50.320;8.054;2023-02-03T15:59:43;9.27;;;4.38;;
35907;SDS011;22003;50.320;8.054;2023-02-03T16:02:29;6.15;;;4.45;;
35907;SDS011;22003;50.320;8.054;2023-02-03T16:05:02;11.73;;;6.72;;
35907;SDS011;22003;50.320;8.054;2023-02-03T16:07:29;8.77;;;4.50;;
35907;SDS011;22003;50.320;8.054;2023-02-03T16:09:55;8.98;;;5.32;;
35907;SDS011;22003;50.320;8.054;2023-02-03T16:12:25;6.63;;;3.42;;
35907;SDS011;22003;50.320;8.054;2023-02-03T16:14:53;6.88;;;4.63;;
35907;SDS011;22003;50.320;8.054;2023-02-03T16:17:24;5.82;;;4.70;;
35907;SDS011;22003;50.320;8.054;2023-02-03T16:22:36;6.63;;;5.68;;
35907;SDS011;22003;50.320;8.054;2023-02-03T16:25:22;6.78;;;4.85;;
35907;SDS011;22003;50.320;8.054;2023-02-03T16:28:22;5.07;;;3.78;;
35907;SDS011;22003;50.320;8.054;2023-02-03T16:31:10;7.22;;;4.35;;
35907;SDS011;22003;50.320;8.054;2023-02-03T16:33:59;7.03;;;4.32;;
35907;SDS011;22003;50.320;8.054;2023-02-03T16:36:44;7.53;;;4.15;;
35907;SDS011;22003;50.320;8.054;2023-02-03T16:39:28;8.35;;;3.90;;
35907;SDS011;22003;50.320;8.054;2023-02-03T16:42:16;9.85;;;4.55;;
35907;SDS011;22003;50.320;8.054;2023-02-03T16:45:03;6.63;;;4.63;;
35907;SDS011;22003;50.320;8.054;2023-02-03T16:47:54;9.05;;;4.40;;
35907;SDS011;22003;50.320;8.054;2023-02-03T16:50:38;10.63;;;4.07;;
35907;SDS011;22003;50.320;8.054;2023-02-03T16:53:23;7.60;;;4.78;;
35907;SDS011;22003;50.320;8.054;2023-02-03T16:55:50;10.27;;;4.95;;
35907;SDS011;22003;50.320;8.054;2023-02-03T16:58:17;7.43;;;4.20;;
35907;SDS011;22003;50.320;8.054;2023-02-03T17:00:43;10.15;;;4.90;;
35907;SDS011;22003;50.320;8.054;2023-02-03T17:03:12;8.27;;;4.65;;
35907;SDS011;22003;50.320;8.054;2023-02-03T17:05:40;8.60;;;4.57;;
35907;SDS011;22003;50.320;8.054;2023-02-03T17:08:07;8.80;;;4.20;;
35907;SDS011;22003;50.320;8.054;2023-02-03T17:10:33;11.65;;;4.47;;
35907;SDS011;22003;50.320;8.054;2023-02-03T17:12:59;9.32;;;5.68;;
35907;SDS011;22003;50.320;8.054;2023-02-03T17:15:24;8.38;;;4.43;;
35907;SDS011;22003;50.320;8.054;2023-02-03T17:17:49;10.55;;;4.68;;
35907;SDS011;22003;50.320;8.054;2023-02-03T17:20:15;7.80;;;4.22;;
35907;SDS011;22003;50.320;8.054;2023-02-03T17:22:40;11.93;;;5.18;;
35907;SDS011;22003;50.320;8.054;2023-02-03T17:25:06;10.82;;;5.35;;
35907;SDS011;22003;50.320;8.054;2023-02-03T17:27:32;11.70;;;4.93;;
35907;SDS011;22003;50.320;8.054;2023-02-03T17:29:57;12.32;;;5.65;;
35907;SDS011;22003;50.320;8.054;2023-02-03T17:32:22;10.15;;;5.25;;
35907;SDS011;22003;50.320;8.054;2023-02-03T17:34:47;9.23;;;4.88;;
35907;SDS011;22003;50.320;8.054;2023-02-03T17:37:13;17.58;;;5.82;;
35907;SDS011;22003;50.320;8.054;2023-02-03T17:39:38;14.55;;;5.82;;
35907;SDS011;22003;50.320;8.054;2023-02-03T17:42:03;15.98;;;3.80;;
35907;SDS011;22003;50.320;8.054;2023-02-03T17:44:29;13.10;;;3.85;;
35907;SDS011;22003;50.320;8.054;2023-02-03T17:46:54;13.10;;;3.25;;
35907;SDS011;22003;50.320;8.054;2023-02-03T17:49:19;15.75;;;3.55;;
35907;SDS011;22003;50.320;8.054;2023-02-03T17:51:44;19.73;;;4.18;;
35907;SDS011;22003;50.320;8.054;2023-02-03T17:54:10;24.35;;;3.95;;
35907;SDS011;22003;50.320;8.054;2023-02-03T17:56:35;19.40;;;3.90;;
35907;SDS011;22003;50.320;8.054;2023-02-03T17:59:02;18.25;;;3.28;;
35907;SDS011;22003;50.320;8.054;2023-02-03T18:01:29;20.80;;;3.53;;
35907;SDS011;22003;50.320;8.054;2023-02-03T18:03:56;13.15;;;3.47;;
35907;SDS011;22003;50.320;8.054;2023-02-03T18:06:24;19.25;;;3.80;;
35907;SDS011;22003;50.320;8.054;2023-02-03T18:08:51;13.65;;;3.78;;
35907;SDS011;22003;50.320;8.054;2023-02-03T18:11:17;16.20;;;3.17;;
35907;SDS011;22003;50.320;8.054;2023-02-03T18:13:44;16.75;;;2.75;;
35907;SDS011;22003;50.320;8.054;2023-02-03T18:16:13;12.80;;;3.53;;
35907;SDS011;22003;50.320;8.054;2023-02-03T18:18:44;13.77;;;3.75;;
35907;SDS011;22003;50.320;8.054;2023-02-03T18:21:11;15.98;;;3.33;;
35907;SDS011;22003;50.320;8.054;2023-02-03T18:23:38;19.23;;;3.67;;
35907;SDS011;22003;50.320;8.054;2023-02-03T18:26:04;15.68;;;3.83;;
35907;SDS011;22003;50.320;8.054;2023-02-03T18:28:31;11.85;;;2.65;;
35907;SDS011;22003;50.320;8.054;2023-02-03T18:30:59;19.13;;;3.50;;
35907;SDS011;22003;50.320;8.054;2023-02-03T18:33:27;14.77;;;3.28;;
35907;SDS011;22003;50.320;8.054;2023-02-03T18:35:54;13.98;;;3.38;;
35907;SDS011;22003;50.320;8.054;2023-02-03T18:38:20;16.30;;;3.10;;
35907;SDS011;22003;50.320;8.054;2023-02-03T18:40:45;19.52;;;4.28;;
35907;SDS011;22003;50.320;8.054;2023-02-03T18:43:11;16.83;;;3.00;;
35907;SDS011;22003;50.320;8.054;2023-02-03T18:45:36;16.13;;;3.13;;
35907;SDS011;22003;50.320;8.054;2023-02-03T18:48:02;20.05;;;5.20;;
35907;SDS011;22003;50.320;8.054;2023-02-03T18:50:27;16.27;;;2.65;;
35907;SDS011;22003;50.320;8.054;2023-02-03T18:52:53;18.73;;;4.68;;
35907;SDS011;22003;50.320;8.054;2023-02-03T18:55:18;21.20;;;3.83;;
35907;SDS011;22003;50.320;8.054;2023-02-03T18:57:44;12.63;;;3.50;;
35907;SDS011;22003;50.320;8.054;2023-02-03T19:00:10;14.70;;;4.55;;
35907;SDS011;22003;50.320;8.054;2023-02-03T19:02:37;15.00;;;3.28;;
35907;SDS011;22003;50.320;8.054;2023-02-03T19:05:03;16.10;;;3.88;;
35907;SDS011;22003;50.320;8.054;2023-02-03T19:07:29;16.60;;;3.42;;
35907;SDS011;22003;50.320;8.054;2023-02-03T19:09:55;19.38;;;5.55;;
35907;SDS011;22003;50.320;8.054;2023-02-03T19:12:20;17.98;;;4.13;;
35907;SDS011;22003;50.320;8.054;2023-02-03T19:14:45;22.42;;;4.00;;
35907;SDS011;22003;50.320;8.054;2023-02-03T19:17:11;15.77;;;4.07;;
35907;SDS011;22003;50.320;8.054;2023-02-03T19:19:36;19.33;;;4.45;;
35907;SDS011;22003;50.320;8.054;2023-02-03T19:22:01;20.42;;;4.47;;
35907;SDS011;22003;50.320;8.054;2023-02-03T19:24:26;22.10;;;3.88;;
35907;SDS011;22003;50.320;8.054;2023-02-03T19:26:52;23.02;;;4.97;;
35907;SDS011;22003;50.320;8.054;2023-02-03T19:29:18;10.63;;;3.65;;
35907;SDS011;22003;50.320;8.054;2023-02-03T19:31:43;23.00;;;7.40;;
35907;SDS011;22003;50.320;8.054;2023-02-03T19:34:12;16.60;;;4.82;;
35907;SDS011;22003;50.320;8.054;2023-02-03T19:36:38;24.27;;;10.35;;
35907;SDS011;22003;50.320;8.054;2023-02-03T19:39:04;20.33;;;10.30;;
35907;SDS011;22003;50.320;8.054;2023-02-03T19:41:29;17.80;;;4.65;;
35907;SDS011;22003;50.320;8.054;2023-02-03T19:43:54;10.40;;;3.35;;
35907;SDS011;22003;50.320;8.054;2023-02-03T19:46:20;13.45;;;4.65;;
35907;SDS011;22003;50.320;8.054;2023-02-03T19:48:46;19.73;;;4.95;;
35907;SDS011;22003;50.320;8.054;2023-02-03T19:51:12;14.30;;;6.05;;
35907;SDS011;22003;50.320;8.054;2023-02-03T19:53:37;24.10;;;5.70;;
35907;SDS011;22003;50.320;8.054;2023-02-03T19:56:03;14.75;;;3.92;;
35907;SDS011;22003;50.320;8.054;2023-02-03T19:58:28;13.98;;;3.25;;
35907;SDS011;22003;50.320;8.054;2023-02-03T20:00:54;18.73;;;5.43;;
35907;SDS011;22003;50.320;8.054;2023-02-03T20:03:20;16.33;;;2.80;;
35907;SDS011;22003;50.320;8.054;2023-02-03T20:05:46;14.00;;;3.13;;
35907;SDS011;22003;50.320;8.054;2023-02-03T20:08:12;13.52;;;3.65;;
35907;SDS011;22003;50.320;8.054;2023-02-03T20:10:39;20.40;;;3.72;;
35907;SDS011;22003;50.320;8.054;2023-02-03T20:13:04;13.20;;;3.15;;
35907;SDS011;22003;50.320;8.054;2023-02-03T20:15:30;21.15;;;4.28;;
35907;SDS011;22003;50.320;8.054;2023-02-03T20:17:55;20.33;;;3.25;;
35907;SDS011;22003;50.320;8.054;2023-02-03T20:20:20;12.00;;;3.25;;
35907;SDS011;22003;50.320;8.054;2023-02-03T20:22:46;22.98;;;3.97;;
35907;SDS011;22003;50.320;8.054;2023-02-03T20:25:12;17.25;;;3.55;;
35907;SDS011;22003;50.320;8.054;2023-02-03T20:27:37;14.27;;;2.83;;
35907;SDS011;22003;50.320;8.054;2023-02-03T20:30:02;17.65;;;3.50;;
35907;SDS011;22003;50.320;8.054;2023-02-03T20:32:28;17.10;;;3.28;;
35907;SDS011;22003;50.320;8.054;2023-02-03T20:34:53;19.60;;;5.88;;
35907;SDS011;22003;50.320;8.054;2023-02-03T20:37:19;22.50;;;3.72;;
35907;SDS011;22003;50.320;8.054;2023-02-03T20:39:44;14.10;;;3.10;;
35907;SDS011;22003;50.320;8.054;2023-02-03T20:42:13;12.45;;;3.58;;
35907;SDS011;22003;50.320;8.054;2023-02-03T20:44:41;24.90;;;4.28;;
35907;SDS011;22003;50.320;8.054;2023-02-03T20:47:10;20.17;;;3.80;;
35907;SDS011;22003;50.320;8.054;2023-02-03T20:49:37;13.73;;;3.50;;
35907;SDS011;22003;50.320;8.054;2023-02-03T20:52:04;19.92;;;3.97;;
35907;SDS011;22003;50.320;8.054;2023-02-03T20:54:34;14.40;;;2.95;;
35907;SDS011;22003;50.320;8.054;2023-02-03T20:56:59;19.48;;;3.08;;
35907;SDS011;22003;50.320;8.054;2023-02-03T20:59:24;19.17;;;3.58;;
35907;SDS011;22003;50.320;8.054;2023-02-03T21:01:49;23.33;;;4.13;;
35907;SDS011;22003;50.320;8.054;2023-02-03T21:04:16;15.93;;;3.63;;
35907;SDS011;22003;50.320;8.054;2023-02-03T21:07:08;12.18;;;3.00;;
35907;SDS011;22003;50.320;8.054;2023-02-03T21:09:36;18.83;;;4.03;;
35907;SDS011;22003;50.320;8.054;2023-02-03T21:12:01;22.30;;;4.22;;
35907;SDS011;22003;50.320;8.054;2023-02-03T21:14:40;17.77;;;4.63;;
35907;SDS011;22003;50.320;8.054;2023-02-03T21:17:13;19.75;;;3.90;;
35907;SDS011;22003;50.320;8.054;2023-02-03T21:19:43;19.23;;;4.20;;
35907;SDS011;22003;50.320;8.054;2023-02-03T21:22:16;26.23;;;4.43;;
35907;SDS011;22003;50.320;8.054;2023-02-03T21:24:45;15.57;;;3.85;;
35907;SDS011;22003;50.320;8.054;2023-02-03T21:27:21;20.00;;;4.13;;
35907;SDS011;22003;50.320;8.054;2023-02-03T21:29:55;18.75;;;4.07;;
35907;SDS011;22003;50.320;8.054;2023-02-03T21:32:33;14.95;;;4.22;;
35907;SDS011;22003;50.320;8.054;2023-02-03T21:35:03;18.25;;;4.20;;
35907;SDS011;22003;50.320;8.054;2023-02-03T21:37:43;23.05;;;4.53;;
35907;SDS011;22003;50.320;8.054;2023-02-03T21:40:16;19.65;;;4.55;;
35907;SDS011;22003;50.320;8.054;2023-02-03T21:42:45;18.13;;;4.15;;